sensor_id;sensor_type;location;lat;lon;timestamp;temperature;humidity
17774;DHT22;9011;33.236;-97.118;2022-11-15T00:01:19;5.70;99.90
17774;DHT22;9011;33.236;-97.118;2022-11-15T00:03:51;5.70;99.90
17774;DHT22;9011;33.236;-97.118;2022-11-15T00:06:19;5.70;99.90
17774;DHT22;9011;33.236;-97.118;2022-11-15T00:08:48;5.70;99.90
17774;DHT22;9011;33.236;-97.118;2022-11-15T00:11:16;5.50;99.90
17774;DHT22;9011;33.236;-97.118;2022-11-15T00:13:45;5.60;99.90
17774;DHT22;9011;33.236;-97.118;2022-11-15T00:16:15;5.60;99.90
17774;DHT22;9011;33.236;-97.118;2022-11-15T00:18:44;5.70;99.90
17774;DHT22;9011;33.236;-97.118;2022-11-15T00:21:13;5.70;99.90
17774;DHT22;9011;33.236;-97.118;2022-11-15T00:23:42;5.70;99.90
17774;DHT22;9011;33.236;-97.118;2022-11-15T00:26:12;5.60;99.90
17774;DHT22;9011;33.236;-97.118;2022-11-15T00:28:42;5.60;99.90
17774;DHT22;9011;33.236;-97.118;2022-11-15T00:31:14;5.50;99.90
17774;DHT22;9011;33.236;-97.118;2022-11-15T00:33:43;5.60;99.90
17774;DHT22;9011;33.236;-97.118;2022-11-15T00:36:12;5.60;99.90
17774;DHT22;9011;33.236;-97.118;2022-11-15T00:38:41;5.50;99.90
17774;DHT22;9011;33.236;-97.118;2022-11-15T00:41:09;5.40;99.90
17774;DHT22;9011;33.236;-97.118;2022-11-15T00:43:38;5.40;99.90
17774;DHT22;9011;33.236;-97.118;2022-11-15T00:46:09;5.30;99.90
17774;DHT22;9011;33.236;-97.118;2022-11-15T00:48:39;5.50;99.90
17774;DHT22;9011;33.236;-97.118;2022-11-15T00:51:08;5.50;99.90
17774;DHT22;9011;33.236;-97.118;2022-11-15T00:53:36;5.30;99.90
17774;DHT22;9011;33.236;-97.118;2022-11-15T00:56:05;5.30;99.90
17774;DHT22;9011;33.236;-97.118;2022-11-15T00:58:33;5.30;99.90
17774;DHT22;9011;33.236;-97.118;2022-11-15T01:01:10;5.20;99.90
17774;DHT22;9011;33.236;-97.118;2022-11-15T01:03:41;5.10;99.90
17774;DHT22;9011;33.236;-97.118;2022-11-15T01:06:10;5.30;99.90
17774;DHT22;9011;33.236;-97.118;2022-11-15T01:08:39;5.30;99.90
17774;DHT22;9011;33.236;-97.118;2022-11-15T01:11:09;5.50;99.90
17774;DHT22;9011;33.236;-97.118;2022-11-15T01:13:38;5.50;99.90
17774;DHT22;9011;33.236;-97.118;2022-11-15T01:16:08;5.40;99.90
17774;DHT22;9011;33.236;-97.118;2022-11-15T01:18:39;5.50;99.90
17774;DHT22;9011;33.236;-97.118;2022-11-15T01:21:09;5.50;99.90
17774;DHT22;9011;33.236;-97.118;2022-11-15T01:23:38;5.50;99.90
17774;DHT22;9011;33.236;-97.118;2022-11-15T01:26:09;5.40;99.90
17774;DHT22;9011;33.236;-97.118;2022-11-15T01:28:40;5.40;99.90
17774;DHT22;9011;33.236;-97.118;2022-11-15T01:31:12;5.40;99.90
17774;DHT22;9011;33.236;-97.118;2022-11-15T01:33:43;5.40;99.90
17774;DHT22;9011;33.236;-97.118;2022-11-15T01:36:13;5.50;99.90
17774;DHT22;9011;33.236;-97.118;2022-11-15T01:38:42;5.50;99.90
17774;DHT22;9011;33.236;-97.118;2022-11-15T01:41:15;5.40;99.90
17774;DHT22;9011;33.236;-97.118;2022-11-15T01:43:48;5.30;99.90
17774;DHT22;9011;33.236;-97.118;2022-11-15T01:46:30;5.50;99.90
17774;DHT22;9011;33.236;-97.118;2022-11-15T01:49:10;5.50;99.90
17774;DHT22;9011;33.236;-97.118;2022-11-15T01:51:40;5.50;99.90
17774;DHT22;9011;33.236;-97.118;2022-11-15T01:54:11;5.30;99.90
17774;DHT22;9011;33.236;-97.118;2022-11-15T01:56:44;5.30;99.90
17774;DHT22;9011;33.236;-97.118;2022-11-15T01:59:14;5.30;99.90
17774;DHT22;9011;33.236;-97.118;2022-11-15T02:01:43;5.20;99.90
17774;DHT22;9011;33.236;-97.118;2022-11-15T02:04:15;5.30;99.90
17774;DHT22;9011;33.236;-97.118;2022-11-15T02:06:44;5.40;99.90
17774;DHT22;9011;33.236;-97.118;2022-11-15T02:09:15;5.30;99.90
17774;DHT22;9011;33.236;-97.118;2022-11-15T02:11:45;5.40;99.90
17774;DHT22;9011;33.236;-97.118;2022-11-15T02:14:18;5.50;99.90
17774;DHT22;9011;33.236;-97.118;2022-11-15T02:16:54;5.50;99.90
17774;DHT22;9011;33.236;-97.118;2022-11-15T02:19:43;5.50;99.90
17774;DHT22;9011;33.236;-97.118;2022-11-15T02:22:33;5.50;99.90
17774;DHT22;9011;33.236;-97.118;2022-11-15T02:25:32;5.50;99.90
17774;DHT22;9011;33.236;-97.118;2022-11-15T02:28:40;5.50;99.90
17774;DHT22;9011;33.236;-97.118;2022-11-15T02:31:19;5.50;99.90
17774;DHT22;9011;33.236;-97.118;2022-11-15T02:33:56;5.60;99.90
17774;DHT22;9011;33.236;-97.118;2022-11-15T02:36:36;5.50;99.90
17774;DHT22;9011;33.236;-97.118;2022-11-15T02:39:13;5.20;99.90
17774;DHT22;9011;33.236;-97.118;2022-11-15T02:41:48;5.30;99.90
17774;DHT22;9011;33.236;-97.118;2022-11-15T02:44:23;5.20;99.90
17774;DHT22;9011;33.236;-97.118;2022-11-15T02:46:56;5.30;99.90
17774;DHT22;9011;33.236;-97.118;2022-11-15T02:49:43;5.30;99.90
17774;DHT22;9011;33.236;-97.118;2022-11-15T02:52:15;5.40;99.90
17774;DHT22;9011;33.236;-97.118;2022-11-15T02:54:53;5.50;99.90
17774;DHT22;9011;33.236;-97.118;2022-11-15T02:57:29;5.50;99.90
17774;DHT22;9011;33.236;-97.118;2022-11-15T03:00:07;5.20;99.90
17774;DHT22;9011;33.236;-97.118;2022-11-15T03:03:08;5.20;99.90
17774;DHT22;9011;33.236;-97.118;2022-11-15T03:05:46;5.20;99.90
17774;DHT22;9011;33.236;-97.118;2022-11-15T03:08:25;5.20;99.90
17774;DHT22;9011;33.236;-97.118;2022-11-15T03:11:02;5.30;99.90
17774;DHT22;9011;33.236;-97.118;2022-11-15T03:13:37;5.30;99.90
17774;DHT22;9011;33.236;-97.118;2022-11-15T03:16:11;5.20;99.90
17774;DHT22;9011;33.236;-97.118;2022-11-15T03:18:49;5.30;99.90
17774;DHT22;9011;33.236;-97.118;2022-11-15T03:21:21;5.30;99.90
17774;DHT22;9011;33.236;-97.118;2022-11-15T03:23:55;5.30;99.90
17774;DHT22;9011;33.236;-97.118;2022-11-15T03:26:25;5.30;99.90
17774;DHT22;9011;33.236;-97.118;2022-11-15T03:28:57;5.30;99.90
17774;DHT22;9011;33.236;-97.118;2022-11-15T03:31:28;5.30;99.90
17774;DHT22;9011;33.236;-97.118;2022-11-15T03:34:27;5.30;99.90
17774;DHT22;9011;33.236;-97.118;2022-11-15T03:36:57;5.30;99.90
17774;DHT22;9011;33.236;-97.118;2022-11-15T03:39:30;5.20;99.90
17774;DHT22;9011;33.236;-97.118;2022-11-15T03:42:06;5.10;99.90
17774;DHT22;9011;33.236;-97.118;2022-11-15T03:44:44;5.00;99.90
17774;DHT22;9011;33.236;-97.118;2022-11-15T03:47:20;4.90;99.90
17774;DHT22;9011;33.236;-97.118;2022-11-15T03:49:55;5.00;99.90
17774;DHT22;9011;33.236;-97.118;2022-11-15T03:52:25;5.10;99.90
17774;DHT22;9011;33.236;-97.118;2022-11-15T03:54:57;4.90;99.90
17774;DHT22;9011;33.236;-97.118;2022-11-15T03:57:28;4.90;99.90
17774;DHT22;9011;33.236;-97.118;2022-11-15T03:59:57;4.90;99.90
17774;DHT22;9011;33.236;-97.118;2022-11-15T04:02:26;4.90;99.90
17774;DHT22;9011;33.236;-97.118;2022-11-15T04:04:56;5.00;99.90
17774;DHT22;9011;33.236;-97.118;2022-11-15T04:07:25;5.10;99.90
17774;DHT22;9011;33.236;-97.118;2022-11-15T04:09:53;5.20;99.90
17774;DHT22;9011;33.236;-97.118;2022-11-15T04:12:33;4.90;99.90
17774;DHT22;9011;33.236;-97.118;2022-11-15T04:15:03;4.90;99.90
17774;DHT22;9011;33.236;-97.118;2022-11-15T04:17:37;5.00;99.90
17774;DHT22;9011;33.236;-97.118;2022-11-15T04:20:10;4.80;99.90
17774;DHT22;9011;33.236;-97.118;2022-11-15T04:22:57;5.00;99.90
17774;DHT22;9011;33.236;-97.118;2022-11-15T04:25:52;5.00;99.90
17774;DHT22;9011;33.236;-97.118;2022-11-15T04:28:22;5.00;99.90
17774;DHT22;9011;33.236;-97.118;2022-11-15T04:30:51;4.90;99.90
17774;DHT22;9011;33.236;-97.118;2022-11-15T04:33:19;4.90;99.90
17774;DHT22;9011;33.236;-97.118;2022-11-15T04:35:50;4.80;99.90
17774;DHT22;9011;33.236;-97.118;2022-11-15T04:38:32;4.90;99.90
17774;DHT22;9011;33.236;-97.118;2022-11-15T04:41:01;4.90;99.90
17774;DHT22;9011;33.236;-97.118;2022-11-15T04:43:30;5.10;99.90
17774;DHT22;9011;33.236;-97.118;2022-11-15T04:45:59;5.20;99.90
17774;DHT22;9011;33.236;-97.118;2022-11-15T04:48:28;5.20;99.90
17774;DHT22;9011;33.236;-97.118;2022-11-15T04:50:58;5.30;99.90
17774;DHT22;9011;33.236;-97.118;2022-11-15T04:53:27;5.20;99.90
17774;DHT22;9011;33.236;-97.118;2022-11-15T04:55:56;5.10;99.90
17774;DHT22;9011;33.236;-97.118;2022-11-15T04:58:24;5.00;99.90
17774;DHT22;9011;33.236;-97.118;2022-11-15T05:00:53;5.10;99.90
17774;DHT22;9011;33.236;-97.118;2022-11-15T05:03:22;5.10;99.90
17774;DHT22;9011;33.236;-97.118;2022-11-15T05:06:12;5.10;99.90
17774;DHT22;9011;33.236;-97.118;2022-11-15T05:08:40;5.00;99.90
17774;DHT22;9011;33.236;-97.118;2022-11-15T05:11:12;5.00;99.90
17774;DHT22;9011;33.236;-97.118;2022-11-15T05:13:43;5.00;99.90
17774;DHT22;9011;33.236;-97.118;2022-11-15T05:16:12;5.10;99.90
17774;DHT22;9011;33.236;-97.118;2022-11-15T05:18:41;5.20;99.90
17774;DHT22;9011;33.236;-97.118;2022-11-15T05:21:12;5.10;99.90
17774;DHT22;9011;33.236;-97.118;2022-11-15T05:23:41;5.10;99.90
17774;DHT22;9011;33.236;-97.118;2022-11-15T05:26:10;5.00;99.90
17774;DHT22;9011;33.236;-97.118;2022-11-15T05:28:39;5.00;99.90
17774;DHT22;9011;33.236;-97.118;2022-11-15T05:31:10;5.10;99.90
17774;DHT22;9011;33.236;-97.118;2022-11-15T05:33:39;5.00;99.90
17774;DHT22;9011;33.236;-97.118;2022-11-15T05:36:15;5.00;99.90
17774;DHT22;9011;33.236;-97.118;2022-11-15T05:38:46;5.00;99.90
17774;DHT22;9011;33.236;-97.118;2022-11-15T05:41:15;5.00;99.90
17774;DHT22;9011;33.236;-97.118;2022-11-15T05:43:45;5.00;99.90
17774;DHT22;9011;33.236;-97.118;2022-11-15T05:46:17;5.00;99.90
17774;DHT22;9011;33.236;-97.118;2022-11-15T05:48:47;5.00;99.90
17774;DHT22;9011;33.236;-97.118;2022-11-15T05:51:20;5.10;99.90
17774;DHT22;9011;33.236;-97.118;2022-11-15T05:53:49;5.10;99.90
17774;DHT22;9011;33.236;-97.118;2022-11-15T05:56:19;5.00;99.90
17774;DHT22;9011;33.236;-97.118;2022-11-15T05:58:47;5.00;99.90
17774;DHT22;9011;33.236;-97.118;2022-11-15T06:01:16;5.10;99.90
17774;DHT22;9011;33.236;-97.118;2022-11-15T06:03:45;5.10;99.90
17774;DHT22;9011;33.236;-97.118;2022-11-15T06:06:13;5.00;99.90
17774;DHT22;9011;33.236;-97.118;2022-11-15T06:08:43;5.10;99.90
17774;DHT22;9011;33.236;-97.118;2022-11-15T06:11:12;5.00;99.90
17774;DHT22;9011;33.236;-97.118;2022-11-15T06:13:41;5.00;99.90
17774;DHT22;9011;33.236;-97.118;2022-11-15T06:16:10;5.10;99.90
17774;DHT22;9011;33.236;-97.118;2022-11-15T06:18:38;5.00;99.90
17774;DHT22;9011;33.236;-97.118;2022-11-15T06:21:07;5.00;99.90
17774;DHT22;9011;33.236;-97.118;2022-11-15T06:23:36;4.90;99.90
17774;DHT22;9011;33.236;-97.118;2022-11-15T06:26:06;5.00;99.90
17774;DHT22;9011;33.236;-97.118;2022-11-15T06:28:35;5.00;99.90
17774;DHT22;9011;33.236;-97.118;2022-11-15T06:31:04;5.00;99.90
17774;DHT22;9011;33.236;-97.118;2022-11-15T06:33:33;5.10;99.90
17774;DHT22;9011;33.236;-97.118;2022-11-15T06:36:02;5.10;99.90
17774;DHT22;9011;33.236;-97.118;2022-11-15T06:38:31;5.10;99.90
17774;DHT22;9011;33.236;-97.118;2022-11-15T06:41:02;5.10;99.90
17774;DHT22;9011;33.236;-97.118;2022-11-15T06:43:32;5.00;99.90
17774;DHT22;9011;33.236;-97.118;2022-11-15T06:46:01;5.00;99.90
17774;DHT22;9011;33.236;-97.118;2022-11-15T06:48:31;5.00;99.90
17774;DHT22;9011;33.236;-97.118;2022-11-15T06:51:01;5.00;99.90
17774;DHT22;9011;33.236;-97.118;2022-11-15T06:53:33;5.10;99.90
17774;DHT22;9011;33.236;-97.118;2022-11-15T06:56:03;5.10;99.90
17774;DHT22;9011;33.236;-97.118;2022-11-15T06:58:33;5.10;99.90
17774;DHT22;9011;33.236;-97.118;2022-11-15T07:01:03;5.00;99.90
17774;DHT22;9011;33.236;-97.118;2022-11-15T07:03:34;5.00;99.90
17774;DHT22;9011;33.236;-97.118;2022-11-15T07:06:04;4.90;99.90
17774;DHT22;9011;33.236;-97.118;2022-11-15T07:08:32;5.00;99.90
17774;DHT22;9011;33.236;-97.118;2022-11-15T07:11:02;4.90;99.90
17774;DHT22;9011;33.236;-97.118;2022-11-15T07:13:33;4.80;99.90
17774;DHT22;9011;33.236;-97.118;2022-11-15T07:16:04;4.60;99.90
17774;DHT22;9011;33.236;-97.118;2022-11-15T07:18:34;4.70;99.90
17774;DHT22;9011;33.236;-97.118;2022-11-15T07:21:04;4.60;99.90
17774;DHT22;9011;33.236;-97.118;2022-11-15T07:23:35;4.60;99.90
17774;DHT22;9011;33.236;-97.118;2022-11-15T07:26:04;4.60;99.90
17774;DHT22;9011;33.236;-97.118;2022-11-15T07:28:34;4.60;99.90
17774;DHT22;9011;33.236;-97.118;2022-11-15T07:31:04;4.60;99.90
17774;DHT22;9011;33.236;-97.118;2022-11-15T07:33:35;4.60;99.90
17774;DHT22;9011;33.236;-97.118;2022-11-15T07:36:05;4.50;99.90
17774;DHT22;9011;33.236;-97.118;2022-11-15T07:38:35;4.50;99.90
17774;DHT22;9011;33.236;-97.118;2022-11-15T07:41:04;4.60;99.90
17774;DHT22;9011;33.236;-97.118;2022-11-15T07:43:35;4.50;99.90
17774;DHT22;9011;33.236;-97.118;2022-11-15T07:46:05;4.50;99.90
17774;DHT22;9011;33.236;-97.118;2022-11-15T07:48:35;4.50;99.90
17774;DHT22;9011;33.236;-97.118;2022-11-15T07:51:09;4.40;99.90
17774;DHT22;9011;33.236;-97.118;2022-11-15T07:53:38;4.40;99.90
17774;DHT22;9011;33.236;-97.118;2022-11-15T07:56:07;4.40;99.90
17774;DHT22;9011;33.236;-97.118;2022-11-15T07:58:37;4.40;99.90
17774;DHT22;9011;33.236;-97.118;2022-11-15T08:01:06;4.40;99.90
17774;DHT22;9011;33.236;-97.118;2022-11-15T08:03:35;4.30;99.90
17774;DHT22;9011;33.236;-97.118;2022-11-15T08:06:04;4.30;99.90
17774;DHT22;9011;33.236;-97.118;2022-11-15T08:08:33;4.20;99.90
17774;DHT22;9011;33.236;-97.118;2022-11-15T08:11:01;4.20;99.90
17774;DHT22;9011;33.236;-97.118;2022-11-15T08:13:30;4.20;99.90
17774;DHT22;9011;33.236;-97.118;2022-11-15T08:16:01;4.10;99.90
17774;DHT22;9011;33.236;-97.118;2022-11-15T08:18:31;4.10;99.90
17774;DHT22;9011;33.236;-97.118;2022-11-15T08:21:00;4.10;99.90
17774;DHT22;9011;33.236;-97.118;2022-11-15T08:23:29;4.10;99.90
17774;DHT22;9011;33.236;-97.118;2022-11-15T08:26:01;4.10;99.90
17774;DHT22;9011;33.236;-97.118;2022-11-15T08:28:31;4.10;99.90
17774;DHT22;9011;33.236;-97.118;2022-11-15T08:31:01;4.10;99.90
17774;DHT22;9011;33.236;-97.118;2022-11-15T08:33:31;4.20;99.90
17774;DHT22;9011;33.236;-97.118;2022-11-15T08:36:00;4.20;99.90
17774;DHT22;9011;33.236;-97.118;2022-11-15T08:38:28;4.10;99.90
17774;DHT22;9011;33.236;-97.118;2022-11-15T08:41:01;4.10;99.90
17774;DHT22;9011;33.236;-97.118;2022-11-15T08:43:30;4.10;99.90
17774;DHT22;9011;33.236;-97.118;2022-11-15T08:46:00;4.10;99.90
17774;DHT22;9011;33.236;-97.118;2022-11-15T08:48:29;4.10;99.90
17774;DHT22;9011;33.236;-97.118;2022-11-15T08:50:58;4.00;99.90
17774;DHT22;9011;33.236;-97.118;2022-11-15T08:53:26;4.00;99.90
17774;DHT22;9011;33.236;-97.118;2022-11-15T08:55:56;4.00;99.90
17774;DHT22;9011;33.236;-97.118;2022-11-15T08:58:25;4.10;99.90
17774;DHT22;9011;33.236;-97.118;2022-11-15T09:00:53;4.20;99.90
17774;DHT22;9011;33.236;-97.118;2022-11-15T09:03:23;4.10;99.90
17774;DHT22;9011;33.236;-97.118;2022-11-15T09:05:55;4.10;99.90
17774;DHT22;9011;33.236;-97.118;2022-11-15T09:08:23;4.10;99.90
17774;DHT22;9011;33.236;-97.118;2022-11-15T09:10:52;4.10;99.90
17774;DHT22;9011;33.236;-97.118;2022-11-15T09:13:21;4.20;99.90
17774;DHT22;9011;33.236;-97.118;2022-11-15T09:15:50;4.20;99.90
17774;DHT22;9011;33.236;-97.118;2022-11-15T09:18:18;4.20;99.90
17774;DHT22;9011;33.236;-97.118;2022-11-15T09:20:50;4.20;99.90
17774;DHT22;9011;33.236;-97.118;2022-11-15T09:23:19;4.20;99.90
17774;DHT22;9011;33.236;-97.118;2022-11-15T09:25:47;4.20;99.90
17774;DHT22;9011;33.236;-97.118;2022-11-15T09:28:15;4.20;99.90
17774;DHT22;9011;33.236;-97.118;2022-11-15T09:30:44;4.10;99.90
17774;DHT22;9011;33.236;-97.118;2022-11-15T09:33:13;4.10;99.90
17774;DHT22;9011;33.236;-97.118;2022-11-15T09:35:42;4.10;99.90
17774;DHT22;9011;33.236;-97.118;2022-11-15T09:38:11;4.20;99.90
17774;DHT22;9011;33.236;-97.118;2022-11-15T09:40:40;4.10;99.90
17774;DHT22;9011;33.236;-97.118;2022-11-15T09:43:26;4.00;99.90
17774;DHT22;9011;33.236;-97.118;2022-11-15T09:46:06;4.00;99.90
17774;DHT22;9011;33.236;-97.118;2022-11-15T09:48:48;4.10;99.90
17774;DHT22;9011;33.236;-97.118;2022-11-15T09:51:25;4.10;99.90
17774;DHT22;9011;33.236;-97.118;2022-11-15T09:54:09;4.00;99.90
17774;DHT22;9011;33.236;-97.118;2022-11-15T09:56:42;4.00;99.90
17774;DHT22;9011;33.236;-97.118;2022-11-15T09:59:26;4.00;99.90
17774;DHT22;9011;33.236;-97.118;2022-11-15T10:02:01;4.10;99.90
17774;DHT22;9011;33.236;-97.118;2022-11-15T10:04:31;4.10;99.90
17774;DHT22;9011;33.236;-97.118;2022-11-15T10:07:02;4.10;99.90
17774;DHT22;9011;33.236;-97.118;2022-11-15T10:09:39;4.10;99.90
17774;DHT22;9011;33.236;-97.118;2022-11-15T10:12:13;4.00;99.90
17774;DHT22;9011;33.236;-97.118;2022-11-15T10:14:42;4.00;99.90
17774;DHT22;9011;33.236;-97.118;2022-11-15T10:17:32;4.00;99.90
17774;DHT22;9011;33.236;-97.118;2022-11-15T10:20:10;4.10;99.90
17774;DHT22;9011;33.236;-97.118;2022-11-15T10:22:44;4.00;99.90
17774;DHT22;9011;33.236;-97.118;2022-11-15T10:25:22;3.90;99.90
17774;DHT22;9011;33.236;-97.118;2022-11-15T10:27:54;4.00;99.90
17774;DHT22;9011;33.236;-97.118;2022-11-15T10:30:23;4.10;99.90
17774;DHT22;9011;33.236;-97.118;2022-11-15T10:32:56;4.10;99.90
17774;DHT22;9011;33.236;-97.118;2022-11-15T10:35:27;4.10;99.90
17774;DHT22;9011;33.236;-97.118;2022-11-15T10:38:05;4.00;99.90
17774;DHT22;9011;33.236;-97.118;2022-11-15T10:40:37;4.00;99.90
17774;DHT22;9011;33.236;-97.118;2022-11-15T10:43:13;4.10;99.90
17774;DHT22;9011;33.236;-97.118;2022-11-15T10:45:42;4.10;99.90
17774;DHT22;9011;33.236;-97.118;2022-11-15T10:48:24;4.10;99.90
17774;DHT22;9011;33.236;-97.118;2022-11-15T10:50:53;4.00;99.90
17774;DHT22;9011;33.236;-97.118;2022-11-15T10:53:27;4.00;99.90
17774;DHT22;9011;33.236;-97.118;2022-11-15T10:56:01;4.10;99.90
17774;DHT22;9011;33.236;-97.118;2022-11-15T10:58:34;4.00;99.90
17774;DHT22;9011;33.236;-97.118;2022-11-15T11:01:14;4.10;99.90
17774;DHT22;9011;33.236;-97.118;2022-11-15T11:03:44;4.10;99.90
17774;DHT22;9011;33.236;-97.118;2022-11-15T11:06:14;4.00;99.90
17774;DHT22;9011;33.236;-97.118;2022-11-15T11:08:55;4.00;99.90
17774;DHT22;9011;33.236;-97.118;2022-11-15T11:11:27;4.00;99.90
17774;DHT22;9011;33.236;-97.118;2022-11-15T11:14:12;4.00;99.90
17774;DHT22;9011;33.236;-97.118;2022-11-15T11:16:46;4.10;99.90
17774;DHT22;9011;33.236;-97.118;2022-11-15T11:19:30;4.10;99.90
17774;DHT22;9011;33.236;-97.118;2022-11-15T11:22:09;4.00;99.90
17774;DHT22;9011;33.236;-97.118;2022-11-15T11:24:44;4.00;99.90
17774;DHT22;9011;33.236;-97.118;2022-11-15T11:27:27;4.10;99.90
17774;DHT22;9011;33.236;-97.118;2022-11-15T11:30:07;4.00;99.90
17774;DHT22;9011;33.236;-97.118;2022-11-15T11:33:07;4.00;99.90
17774;DHT22;9011;33.236;-97.118;2022-11-15T11:35:45;4.00;99.90
17774;DHT22;9011;33.236;-97.118;2022-11-15T11:38:32;4.00;99.90
17774;DHT22;9011;33.236;-97.118;2022-11-15T11:41:10;4.00;99.90
17774;DHT22;9011;33.236;-97.118;2022-11-15T11:43:51;4.10;99.90
17774;DHT22;9011;33.236;-97.118;2022-11-15T11:46:41;3.90;99.90
17774;DHT22;9011;33.236;-97.118;2022-11-15T11:49:16;4.00;99.90
17774;DHT22;9011;33.236;-97.118;2022-11-15T11:51:51;3.90;99.90
17774;DHT22;9011;33.236;-97.118;2022-11-15T11:54:25;4.00;99.90
17774;DHT22;9011;33.236;-97.118;2022-11-15T11:56:55;3.90;99.90
17774;DHT22;9011;33.236;-97.118;2022-11-15T11:59:33;3.90;99.90
17774;DHT22;9011;33.236;-97.118;2022-11-15T12:02:14;3.90;99.90
17774;DHT22;9011;33.236;-97.118;2022-11-15T12:04:48;3.90;99.90
17774;DHT22;9011;33.236;-97.118;2022-11-15T12:07:23;3.90;99.90
17774;DHT22;9011;33.236;-97.118;2022-11-15T12:09:57;3.80;99.90
17774;DHT22;9011;33.236;-97.118;2022-11-15T12:12:34;3.70;99.90
17774;DHT22;9011;33.236;-97.118;2022-11-15T12:15:12;3.80;99.90
17774;DHT22;9011;33.236;-97.118;2022-11-15T12:17:42;3.70;99.90
17774;DHT22;9011;33.236;-97.118;2022-11-15T12:20:16;3.70;99.90
17774;DHT22;9011;33.236;-97.118;2022-11-15T12:22:49;3.70;99.90
17774;DHT22;9011;33.236;-97.118;2022-11-15T12:25:23;3.60;99.90
17774;DHT22;9011;33.236;-97.118;2022-11-15T12:27:57;3.60;99.90
17774;DHT22;9011;33.236;-97.118;2022-11-15T12:30:40;3.50;99.90
17774;DHT22;9011;33.236;-97.118;2022-11-15T12:33:29;3.50;99.90
17774;DHT22;9011;33.236;-97.118;2022-11-15T12:36:02;3.40;99.90
17774;DHT22;9011;33.236;-97.118;2022-11-15T12:38:56;3.50;99.90
17774;DHT22;9011;33.236;-97.118;2022-11-15T12:41:25;3.50;99.90
17774;DHT22;9011;33.236;-97.118;2022-11-15T12:43:54;3.30;99.90
17774;DHT22;9011;33.236;-97.118;2022-11-15T12:49:47;3.20;99.90
17774;DHT22;9011;33.236;-97.118;2022-11-15T12:52:17;3.30;99.90
17774;DHT22;9011;33.236;-97.118;2022-11-15T12:55:00;3.30;99.90
17774;DHT22;9011;33.236;-97.118;2022-11-15T12:57:40;3.30;99.90
17774;DHT22;9011;33.236;-97.118;2022-11-15T13:00:38;3.40;99.90
17774;DHT22;9011;33.236;-97.118;2022-11-15T13:03:18;3.30;99.90
17774;DHT22;9011;33.236;-97.118;2022-11-15T13:06:04;3.30;99.90
17774;DHT22;9011;33.236;-97.118;2022-11-15T13:08:47;3.30;99.90
17774;DHT22;9011;33.236;-97.118;2022-11-15T13:11:51;3.30;99.90
17774;DHT22;9011;33.236;-97.118;2022-11-15T13:14:44;3.20;99.90
17774;DHT22;9011;33.236;-97.118;2022-11-15T13:17:39;3.10;99.90
17774;DHT22;9011;33.236;-97.118;2022-11-15T13:20:26;3.10;99.90
17774;DHT22;9011;33.236;-97.118;2022-11-15T13:23:07;3.20;99.90
17774;DHT22;9011;33.236;-97.118;2022-11-15T13:26:11;3.20;99.90
17774;DHT22;9011;33.236;-97.118;2022-11-15T13:28:44;3.10;99.90
17774;DHT22;9011;33.236;-97.118;2022-11-15T13:31:36;3.10;99.90
17774;DHT22;9011;33.236;-97.118;2022-11-15T13:34:25;3.10;99.90
17774;DHT22;9011;33.236;-97.118;2022-11-15T13:36:56;3.10;99.90
17774;DHT22;9011;33.236;-97.118;2022-11-15T13:39:27;3.00;99.90
17774;DHT22;9011;33.236;-97.118;2022-11-15T13:41:57;3.10;99.90
17774;DHT22;9011;33.236;-97.118;2022-11-15T13:44:26;3.00;99.90
17774;DHT22;9011;33.236;-97.118;2022-11-15T13:47:06;3.00;99.90
17774;DHT22;9011;33.236;-97.118;2022-11-15T13:49:34;3.00;99.90
17774;DHT22;9011;33.236;-97.118;2022-11-15T13:52:08;2.90;99.90
17774;DHT22;9011;33.236;-97.118;2022-11-15T13:54:41;2.80;99.90
17774;DHT22;9011;33.236;-97.118;2022-11-15T13:57:12;2.90;99.90
17774;DHT22;9011;33.236;-97.118;2022-11-15T13:59:46;3.00;99.90
17774;DHT22;9011;33.236;-97.118;2022-11-15T14:02:16;3.00;99.90
17774;DHT22;9011;33.236;-97.118;2022-11-15T14:04:48;2.80;99.90
17774;DHT22;9011;33.236;-97.118;2022-11-15T14:07:20;2.90;99.90
17774;DHT22;9011;33.236;-97.118;2022-11-15T14:09:49;3.00;99.90
17774;DHT22;9011;33.236;-97.118;2022-11-15T14:12:24;3.10;99.90
17774;DHT22;9011;33.236;-97.118;2022-11-15T14:14:52;3.00;99.90
17774;DHT22;9011;33.236;-97.118;2022-11-15T14:17:33;2.90;99.90
17774;DHT22;9011;33.236;-97.118;2022-11-15T14:20:02;2.80;99.90
17774;DHT22;9011;33.236;-97.118;2022-11-15T14:22:53;2.80;99.90
17774;DHT22;9011;33.236;-97.118;2022-11-15T14:25:24;2.80;99.90
17774;DHT22;9011;33.236;-97.118;2022-11-15T14:28:16;2.80;99.90
17774;DHT22;9011;33.236;-97.118;2022-11-15T14:30:57;2.90;99.90
17774;DHT22;9011;33.236;-97.118;2022-11-15T14:33:28;2.90;99.90
17774;DHT22;9011;33.236;-97.118;2022-11-15T14:35:59;2.90;99.90
17774;DHT22;9011;33.236;-97.118;2022-11-15T14:38:31;3.00;99.90
17774;DHT22;9011;33.236;-97.118;2022-11-15T14:40:59;2.90;99.90
17774;DHT22;9011;33.236;-97.118;2022-11-15T14:43:29;3.10;99.90
17774;DHT22;9011;33.236;-97.118;2022-11-15T14:45:57;2.90;99.90
17774;DHT22;9011;33.236;-97.118;2022-11-15T14:48:25;3.00;99.90
17774;DHT22;9011;33.236;-97.118;2022-11-15T14:50:54;3.10;99.90
17774;DHT22;9011;33.236;-97.118;2022-11-15T14:53:23;3.10;99.90
17774;DHT22;9011;33.236;-97.118;2022-11-15T14:55:52;3.10;99.90
17774;DHT22;9011;33.236;-97.118;2022-11-15T14:58:21;3.10;99.90
17774;DHT22;9011;33.236;-97.118;2022-11-15T15:00:49;3.10;99.90
17774;DHT22;9011;33.236;-97.118;2022-11-15T15:03:17;3.10;99.90
17774;DHT22;9011;33.236;-97.118;2022-11-15T15:05:46;3.20;99.90
17774;DHT22;9011;33.236;-97.118;2022-11-15T15:08:14;3.20;99.90
17774;DHT22;9011;33.236;-97.118;2022-11-15T15:10:44;3.10;99.90
17774;DHT22;9011;33.236;-97.118;2022-11-15T15:13:18;3.10;99.90
17774;DHT22;9011;33.236;-97.118;2022-11-15T15:15:46;3.10;99.90
17774;DHT22;9011;33.236;-97.118;2022-11-15T15:18:15;3.10;99.90
17774;DHT22;9011;33.236;-97.118;2022-11-15T15:20:45;3.00;99.90
17774;DHT22;9011;33.236;-97.118;2022-11-15T15:23:17;2.90;99.90
17774;DHT22;9011;33.236;-97.118;2022-11-15T15:25:46;2.90;99.90
17774;DHT22;9011;33.236;-97.118;2022-11-15T15:28:16;2.90;99.90
17774;DHT22;9011;33.236;-97.118;2022-11-15T15:30:45;3.10;99.90
17774;DHT22;9011;33.236;-97.118;2022-11-15T15:33:13;3.20;99.90
17774;DHT22;9011;33.236;-97.118;2022-11-15T15:35:41;3.20;99.90
17774;DHT22;9011;33.236;-97.118;2022-11-15T15:38:11;3.20;99.90
17774;DHT22;9011;33.236;-97.118;2022-11-15T15:40:39;3.30;99.90
17774;DHT22;9011;33.236;-97.118;2022-11-15T15:43:07;3.20;99.90
17774;DHT22;9011;33.236;-97.118;2022-11-15T15:45:38;3.10;99.90
17774;DHT22;9011;33.236;-97.118;2022-11-15T15:48:11;3.20;99.90
17774;DHT22;9011;33.236;-97.118;2022-11-15T15:50:40;3.20;99.90
17774;DHT22;9011;33.236;-97.118;2022-11-15T15:53:10;3.10;99.90
17774;DHT22;9011;33.236;-97.118;2022-11-15T15:55:38;3.20;99.90
17774;DHT22;9011;33.236;-97.118;2022-11-15T15:58:07;3.30;99.90
17774;DHT22;9011;33.236;-97.118;2022-11-15T16:00:37;3.20;99.90
17774;DHT22;9011;33.236;-97.118;2022-11-15T16:03:05;3.20;99.90
17774;DHT22;9011;33.236;-97.118;2022-11-15T16:05:34;3.20;99.90
17774;DHT22;9011;33.236;-97.118;2022-11-15T16:08:02;3.30;99.90
17774;DHT22;9011;33.236;-97.118;2022-11-15T16:10:32;3.30;99.90